createdAt,value
2018-04-12T00:01:07.015Z,19.60
2018-04-12T00:03:35.155Z,18.60
2018-04-12T00:06:04.318Z,18.80
2018-04-12T00:08:32.441Z,17.67
2018-04-12T00:11:00.572Z,19.90
2018-04-12T00:13:28.707Z,19.23
2018-04-12T00:15:59.151Z,19.37
2018-04-12T00:18:27.280Z,17.13
2018-04-12T00:20:56.204Z,18.27
2018-04-12T00:23:24.477Z,21.57
2018-04-12T00:25:53.366Z,20.57
2018-04-12T00:28:22.240Z,18.73
2018-04-12T00:30:50.431Z,18.30
2018-04-12T00:33:19.315Z,20.33
2018-04-12T00:35:48.304Z,20.07
2018-04-12T00:38:16.397Z,19.47
2018-04-12T00:40:45.267Z,17.30
2018-04-12T00:43:13.441Z,18.77
2018-04-12T00:45:41.996Z,18.60
2018-04-12T00:48:10.157Z,20.03
2018-04-12T00:50:38.416Z,20.07
2018-04-12T00:53:07.286Z,20.73
2018-04-12T00:55:35.501Z,18.03
2018-04-12T00:58:04.353Z,18.10
2018-04-12T01:00:32.480Z,18.67
2018-04-12T01:03:01.369Z,20.10
2018-04-12T01:05:29.547Z,21.37
2018-04-12T01:07:57.659Z,20.97
2018-04-12T01:10:25.768Z,19.80
2018-04-12T01:12:53.889Z,18.90
2018-04-12T01:15:22.031Z,21.33
2018-04-12T01:17:50.927Z,20.20
2018-04-12T01:20:19.808Z,21.80
2018-04-12T01:22:47.930Z,18.47
2018-04-12T01:25:16.936Z,21.20
2018-04-12T01:27:45.067Z,19.73
2018-04-12T01:30:13.264Z,19.50
2018-04-12T01:32:42.210Z,21.13
2018-04-12T01:35:10.443Z,21.03
2018-04-12T01:37:38.588Z,20.17
2018-04-12T01:40:06.692Z,19.73
2018-04-12T01:42:35.024Z,20.37
2018-04-12T01:45:03.140Z,19.77
2018-04-12T01:47:31.264Z,21.67
2018-04-12T01:49:59.419Z,22.30
2018-04-12T01:52:28.291Z,19.10
2018-04-12T01:54:56.503Z,20.60
2018-04-12T01:57:24.641Z,19.53
2018-04-12T01:59:52.765Z,19.67
2018-04-12T02:02:20.887Z,23.97
2018-04-12T02:04:49.045Z,19.33
2018-04-12T02:07:17.153Z,24.37
2018-04-12T02:09:45.274Z,23.20
2018-04-12T02:12:13.480Z,22.47
2018-04-12T02:14:42.812Z,23.00
2018-04-12T02:17:11.746Z,21.97
2018-04-12T02:19:39.928Z,24.27
2018-04-12T02:22:08.088Z,22.27
2018-04-12T02:24:36.187Z,21.77
2018-04-12T02:27:04.503Z,21.83
2018-04-12T02:29:32.619Z,20.43
2018-04-12T02:32:00.756Z,24.13
2018-04-12T02:34:28.866Z,21.77
2018-04-12T02:36:57.744Z,24.10
2018-04-12T02:39:25.882Z,25.93
2018-04-12T02:41:54.030Z,21.83
2018-04-12T02:44:22.147Z,25.00
2018-04-12T02:46:50.254Z,23.53
2018-04-12T02:49:18.395Z,23.10
2018-04-12T02:51:47.279Z,22.37
2018-04-12T02:54:15.399Z,17.67
2018-04-12T02:56:43.621Z,20.27
2018-04-12T02:59:11.717Z,24.10
2018-04-12T03:01:40.644Z,21.93
2018-04-12T03:04:08.765Z,19.87
2018-04-12T03:06:36.885Z,25.03
2018-04-12T03:09:05.007Z,18.50
2018-04-12T03:11:33.148Z,22.20
2018-04-12T03:14:01.287Z,23.30
2018-04-12T03:16:29.385Z,23.60
2018-04-12T03:18:57.506Z,26.50
2018-04-12T03:21:26.389Z,27.13
2018-04-12T03:23:54.682Z,24.53
2018-04-12T03:26:23.579Z,29.23
2018-04-12T03:28:52.467Z,22.13
2018-04-12T03:31:21.432Z,30.77
2018-04-12T03:33:50.239Z,25.70
2018-04-12T03:36:18.366Z,25.17
2018-04-12T03:38:46.497Z,30.60
2018-04-12T03:41:14.611Z,26.00
2018-04-12T03:43:42.755Z,26.67
2018-04-12T03:46:11.640Z,25.23
2018-04-12T03:48:39.795Z,30.87
2018-04-12T03:51:07.898Z,26.87
2018-04-12T03:53:36.849Z,27.07
2018-04-12T03:56:05.690Z,30.17
2018-04-12T03:58:33.845Z,28.67
2018-04-12T04:01:01.968Z,26.67
2018-04-12T04:03:30.843Z,27.97
2018-04-12T04:05:59.723Z,28.70
2018-04-12T04:08:27.843Z,27.10
2018-04-12T04:10:56.128Z,29.93
2018-04-12T04:13:25.727Z,32.47
2018-04-12T04:16:05.910Z,25.83
2018-04-12T04:18:46.710Z,27.17
2018-04-12T04:21:17.455Z,29.80
2018-04-12T04:23:46.599Z,28.33
2018-04-12T04:26:14.767Z,30.03
2018-04-12T04:28:42.907Z,29.60
2018-04-12T04:31:11.187Z,28.03
2018-04-12T04:33:40.041Z,29.67
2018-04-12T04:36:08.146Z,29.97
2018-04-12T04:38:36.256Z,32.10
2018-04-12T04:41:05.140Z,30.47
2018-04-12T04:43:33.277Z,30.57
2018-04-12T04:46:01.391Z,25.03
2018-04-12T04:48:29.505Z,29.20
2018-04-12T04:50:57.632Z,29.47
2018-04-12T04:53:25.756Z,28.27
2018-04-12T04:55:53.884Z,30.80
2018-04-12T04:58:21.984Z,27.97
2018-04-12T05:00:50.131Z,27.23
2018-04-12T05:03:18.251Z,28.23
2018-04-12T05:05:47.126Z,27.90
2018-04-12T05:08:15.239Z,28.07
2018-04-12T05:10:43.337Z,25.70
2018-04-12T05:13:11.459Z,25.67
2018-04-12T05:15:40.391Z,27.53
2018-04-12T05:18:08.484Z,22.83
2018-04-12T05:20:36.601Z,25.60
2018-04-12T05:23:04.718Z,23.40
2018-04-12T05:25:32.852Z,27.23
2018-04-12T05:28:00.979Z,21.93
2018-04-12T05:30:29.191Z,24.63
2018-04-12T05:32:57.349Z,23.40
2018-04-12T05:35:25.467Z,23.63
2018-04-12T05:37:53.589Z,21.47
2018-04-12T05:40:21.703Z,22.20
2018-04-12T05:42:49.847Z,22.10
2018-04-12T05:45:17.964Z,20.93
2018-04-12T05:47:46.070Z,19.13
2018-04-12T05:50:14.957Z,21.90
2018-04-12T05:52:43.075Z,20.10
2018-04-12T05:55:11.178Z,18.97
2018-04-12T05:57:39.321Z,22.03
2018-04-12T06:00:07.455Z,20.27
2018-04-12T06:02:35.627Z,22.00
2018-04-12T06:05:03.816Z,19.67
2018-04-12T06:07:32.688Z,17.90
2018-04-12T06:10:00.820Z,20.23
2018-04-12T06:12:28.944Z,20.47
2018-04-12T06:14:57.128Z,20.27
2018-04-12T06:17:25.247Z,20.87
2018-04-12T06:19:53.408Z,21.57
2018-04-12T06:22:21.491Z,20.27
2018-04-12T06:24:49.608Z,21.53
2018-04-12T06:27:17.725Z,20.63
2018-04-12T06:29:45.872Z,20.10
2018-04-12T06:32:13.976Z,21.33
2018-04-12T06:34:42.099Z,19.63
2018-04-12T06:37:10.211Z,22.13
2018-04-12T06:39:38.336Z,22.93
2018-04-12T06:42:06.576Z,21.57
2018-04-12T06:44:34.697Z,20.20
2018-04-12T06:47:02.815Z,22.60
2018-04-12T06:49:30.938Z,21.07
2018-04-12T06:51:59.838Z,20.73
2018-04-12T06:54:27.955Z,19.67
2018-04-12T06:56:56.128Z,21.50
2018-04-12T06:59:25.095Z,22.97
2018-04-12T07:01:53.220Z,20.60
2018-04-12T07:04:21.358Z,21.13
2018-04-12T07:06:49.456Z,19.27
2018-04-12T07:09:17.563Z,21.47
2018-04-12T07:11:45.692Z,21.27
2018-04-12T07:14:13.807Z,21.33
2018-04-12T07:16:42.051Z,16.63
2018-04-12T07:19:10.185Z,21.03
2018-04-12T07:21:39.071Z,21.30
2018-04-12T07:24:07.184Z,23.10
2018-04-12T07:26:35.299Z,23.33
2018-04-12T07:29:03.428Z,23.80
2018-04-12T07:31:31.559Z,19.23
2018-04-12T07:33:59.675Z,21.03
2018-04-12T07:36:28.553Z,25.57
2018-04-12T07:38:56.664Z,22.93
2018-04-12T07:41:24.807Z,23.33
2018-04-12T07:43:52.928Z,25.63
2018-04-12T07:46:21.055Z,25.43
2018-04-12T07:48:49.160Z,24.07
2018-04-12T07:51:17.267Z,24.50
2018-04-12T07:53:45.421Z,21.17
2018-04-12T07:56:13.547Z,27.17
2018-04-12T07:58:41.663Z,29.03
2018-04-12T08:01:10.540Z,29.77
2018-04-12T08:03:38.687Z,27.53
2018-04-12T08:06:06.865Z,28.53
2018-04-12T08:08:34.980Z,27.43
2018-04-12T08:11:03.880Z,28.17
2018-04-12T08:13:32.755Z,27.87
2018-04-12T08:16:00.910Z,27.20
2018-04-12T08:18:29.018Z,27.63
2018-04-12T08:20:57.187Z,26.17
2018-04-12T08:23:25.309Z,26.00
2018-04-12T08:25:53.440Z,25.60
2018-04-12T08:28:21.587Z,23.87
2018-04-12T08:30:49.692Z,25.67
2018-04-12T08:33:17.831Z,25.87
2018-04-12T08:35:45.952Z,22.47
2018-04-12T08:38:14.055Z,24.67
2018-04-12T08:40:42.168Z,24.57
2018-04-12T08:43:10.291Z,23.17
2018-04-12T08:45:38.404Z,23.43
2018-04-12T08:48:06.519Z,21.27
2018-04-12T08:50:34.636Z,21.03
2018-04-12T08:53:02.844Z,23.67
2018-04-12T08:55:31.056Z,22.93
2018-04-12T08:57:59.171Z,21.87
2018-04-12T09:00:28.060Z,21.80
2018-04-12T09:02:56.968Z,22.90
2018-04-12T09:05:25.084Z,18.33
2018-04-12T09:07:53.188Z,23.13
2018-04-12T09:10:21.336Z,21.20
2018-04-12T09:12:49.557Z,22.23
2018-04-12T09:15:18.424Z,19.50
2018-04-12T09:17:46.539Z,22.23
2018-04-12T09:20:15.427Z,23.77
2018-04-12T09:22:44.318Z,21.50
2018-04-12T09:25:13.207Z,21.03
2018-04-12T09:27:41.405Z,19.87
2018-04-12T09:30:09.442Z,22.23
2018-04-12T09:32:37.740Z,21.07
2018-04-12T09:35:05.844Z,23.77
2018-04-12T09:37:33.974Z,22.40
2018-04-12T09:40:02.093Z,21.83
2018-04-12T09:42:30.973Z,19.10
2018-04-12T09:44:59.091Z,23.20
2018-04-12T09:47:27.206Z,23.57
2018-04-12T09:49:55.331Z,22.83
2018-04-12T09:52:23.458Z,23.83
2018-04-12T09:54:51.573Z,22.30
2018-04-12T09:57:20.454Z,20.97
2018-04-12T09:59:48.572Z,23.80
2018-04-12T10:02:16.685Z,23.90
2018-04-12T10:04:50.521Z,25.07
2018-04-12T10:07:18.632Z,19.03
2018-04-12T10:09:46.737Z,21.23
2018-04-12T10:12:14.854Z,22.60
2018-04-12T10:14:43.735Z,21.37
2018-04-12T10:17:12.617Z,23.97
2018-04-12T10:19:40.789Z,23.30
2018-04-12T10:22:08.895Z,21.97
2018-04-12T10:24:37.760Z,22.67
2018-04-12T10:27:05.889Z,23.23
2018-04-12T10:29:34.005Z,24.93
2018-04-12T10:32:02.886Z,22.03
2018-04-12T10:34:30.987Z,24.27
2018-04-12T10:36:59.235Z,24.60
2018-04-12T10:39:27.374Z,23.60
2018-04-12T10:41:55.453Z,24.57
2018-04-12T10:44:23.590Z,23.63
2018-04-12T10:46:51.668Z,25.00
2018-04-12T10:49:19.784Z,24.03
2018-04-12T10:51:47.910Z,22.53
2018-04-12T10:54:16.041Z,27.83
2018-04-12T10:56:44.160Z,21.93
2018-04-12T10:59:12.683Z,26.10
2018-04-12T11:01:41.634Z,27.80
2018-04-12T11:04:09.740Z,25.77
2018-04-12T11:06:38.014Z,23.80
2018-04-12T11:09:06.131Z,28.87
2018-04-12T11:11:34.232Z,26.83
2018-04-12T11:14:02.355Z,24.53
2018-04-12T11:16:30.476Z,23.80
2018-04-12T11:18:58.594Z,26.07
2018-04-12T11:21:26.725Z,26.27
2018-04-12T11:23:54.824Z,27.73
2018-04-12T11:26:22.937Z,25.97
2018-04-12T11:28:51.061Z,27.93
2018-04-12T11:31:19.179Z,25.77
2018-04-12T11:33:47.347Z,23.57
2018-04-12T11:36:15.470Z,26.67
2018-04-12T11:38:43.580Z,26.77
2018-04-12T11:41:11.687Z,24.50
2018-04-12T11:43:39.811Z,26.10
2018-04-12T11:46:07.947Z,28.57
2018-04-12T11:48:36.049Z,25.77
2018-04-12T11:51:04.934Z,26.67
2018-04-12T11:53:33.055Z,24.63
2018-04-12T11:56:01.216Z,24.43
2018-04-12T11:58:29.327Z,25.37
2018-04-12T12:00:57.445Z,26.43
2018-04-12T12:03:26.387Z,26.07
2018-04-12T12:05:54.537Z,26.30
2018-04-12T12:08:22.674Z,25.63
2018-04-12T12:10:50.806Z,25.53
2018-04-12T12:13:19.683Z,27.17
2018-04-12T12:15:47.804Z,23.33
2018-04-12T12:18:15.904Z,26.40
2018-04-12T12:20:44.087Z,27.40
2018-04-12T12:23:12.175Z,26.27
2018-04-12T12:25:41.063Z,27.90
2018-04-12T12:28:09.157Z,24.87
2018-04-12T12:30:37.292Z,25.87
2018-04-12T12:33:06.265Z,25.50
2018-04-12T12:35:34.364Z,24.60
2018-04-12T12:38:03.582Z,25.93
2018-04-12T12:40:31.699Z,26.83
2018-04-12T12:42:59.868Z,25.87
2018-04-12T12:45:28.002Z,26.37
2018-04-12T12:47:56.127Z,25.00
2018-04-12T12:50:24.224Z,26.67
2018-04-12T12:52:52.327Z,25.23
2018-04-12T12:55:20.436Z,26.07
2018-04-12T12:57:48.588Z,26.33
2018-04-12T13:00:16.679Z,26.63
2018-04-12T13:02:44.795Z,26.87
2018-04-12T13:05:12.925Z,25.47
2018-04-12T13:07:41.049Z,26.20
2018-04-12T13:10:09.935Z,25.83
2018-04-12T13:12:38.071Z,25.03
2018-04-12T13:15:06.216Z,25.43
2018-04-12T13:17:34.336Z,25.17
2018-04-12T13:20:02.511Z,25.03
2018-04-12T13:22:30.617Z,25.77
2018-04-12T13:24:59.535Z,25.80
2018-04-12T13:27:27.607Z,25.37
2018-04-12T13:29:55.715Z,25.27
2018-04-12T13:32:23.867Z,23.53
2018-04-12T13:34:52.025Z,24.03
2018-04-12T13:37:20.931Z,23.23
2018-04-12T13:39:49.080Z,22.10
2018-04-12T13:42:17.189Z,22.33
2018-04-12T13:44:45.328Z,21.13
2018-04-12T13:47:13.466Z,21.17
2018-04-12T13:49:41.619Z,20.80
2018-04-12T13:52:09.723Z,20.90
2018-04-12T13:54:37.861Z,21.00
2018-04-12T13:57:05.966Z,19.70
2018-04-12T13:59:34.076Z,20.20
2018-04-12T14:02:02.240Z,21.13
2018-04-12T14:04:30.319Z,21.53
2018-04-12T14:06:58.455Z,21.20
2018-04-12T14:09:26.545Z,20.97
2018-04-12T14:11:54.672Z,22.43
2018-04-12T14:14:22.783Z,20.63
2018-04-12T14:16:50.980Z,19.90
2018-04-12T14:19:19.123Z,18.93
2018-04-12T14:21:48.008Z,20.13
2018-04-12T14:24:16.937Z,21.13
2018-04-12T14:26:45.022Z,19.90
2018-04-12T14:29:13.135Z,21.13
2018-04-12T14:31:41.233Z,20.90
2018-04-12T14:34:10.103Z,21.57
2018-04-12T14:36:38.250Z,20.07
2018-04-12T14:39:06.336Z,20.77
2018-04-12T14:41:34.443Z,19.90
2018-04-12T14:44:02.602Z,20.07
2018-04-12T14:46:30.764Z,20.83
2018-04-12T14:48:58.912Z,20.67
2018-04-12T14:51:27.023Z,21.10
2018-04-12T14:53:55.159Z,20.13
2018-04-12T14:56:23.267Z,20.27
2018-04-12T14:58:51.451Z,19.20
2018-04-12T15:01:19.660Z,19.43
2018-04-12T15:03:47.882Z,20.40
2018-04-12T15:06:16.162Z,21.30
2018-04-12T15:08:44.227Z,18.00
2018-04-12T15:11:12.325Z,20.10
2018-04-12T15:13:41.330Z,19.77
2018-04-12T15:16:09.469Z,19.80
2018-04-12T15:18:38.361Z,18.93
2018-04-12T15:21:07.348Z,20.03
2018-04-12T15:23:35.452Z,20.07
2018-04-12T15:26:03.678Z,18.47
2018-04-12T15:28:31.794Z,20.00
2018-04-12T15:31:00.671Z,18.00
2018-04-12T15:33:28.789Z,18.83
2018-04-12T15:35:56.948Z,19.30
2018-04-12T15:38:25.114Z,19.33
2018-04-12T15:40:53.267Z,16.97
2018-04-12T15:43:21.383Z,18.40
2018-04-12T15:45:49.522Z,18.40
2018-04-12T15:48:17.607Z,18.70
2018-04-12T15:50:45.720Z,19.27
2018-04-12T15:53:13.855Z,17.63
2018-04-12T15:55:41.974Z,18.37
2018-04-12T15:58:10.093Z,19.30
2018-04-12T16:00:38.256Z,18.20
2018-04-12T16:03:06.583Z,17.57
2018-04-12T16:05:34.759Z,17.20
2018-04-12T16:08:03.307Z,18.77
2018-04-12T16:10:31.404Z,17.77
2018-04-12T16:12:59.509Z,18.80
2018-04-12T16:15:28.391Z,17.83
2018-04-12T16:17:56.503Z,19.43
2018-04-12T16:20:24.599Z,19.30
2018-04-12T16:22:52.715Z,18.13
2018-04-12T16:25:20.816Z,20.00
2018-04-12T16:27:49.693Z,19.67
2018-04-12T16:30:17.791Z,19.80
2018-04-12T16:32:45.939Z,19.73
2018-04-12T16:35:14.055Z,18.90
2018-04-12T16:37:42.191Z,19.30
2018-04-12T16:40:10.303Z,19.87
2018-04-12T16:42:38.422Z,19.53
2018-04-12T16:45:06.538Z,17.87
2018-04-12T16:47:34.653Z,18.13
2018-04-12T16:50:02.771Z,19.20
2018-04-12T16:52:31.560Z,21.87
2018-04-12T16:54:59.683Z,19.97
2018-04-12T16:57:27.811Z,20.33
2018-04-12T16:59:55.929Z,18.03
2018-04-12T17:02:24.813Z,18.63
2018-04-12T17:04:53.683Z,20.23
2018-04-12T17:07:21.806Z,17.97
2018-04-12T17:09:50.665Z,19.27
2018-04-12T17:12:18.767Z,20.63
2018-04-12T17:14:46.915Z,17.77
2018-04-12T17:17:15.047Z,18.57
2018-04-12T17:19:43.153Z,19.67
2018-04-12T17:22:11.265Z,20.37
2018-04-12T17:24:40.390Z,17.53
2018-04-12T17:27:09.263Z,19.43
2018-04-12T17:29:38.195Z,18.40
2018-04-12T17:32:06.432Z,20.30
2018-04-12T17:34:34.855Z,20.93
2018-04-12T17:37:03.055Z,21.40
2018-04-12T17:39:31.212Z,22.20
2018-04-12T17:41:59.310Z,21.93
2018-04-12T17:44:27.420Z,20.43
2018-04-12T17:46:55.535Z,20.10
2018-04-12T17:49:23.664Z,21.57
2018-04-12T17:51:51.759Z,20.03
2018-04-12T17:54:20.712Z,21.13
2018-04-12T17:56:49.610Z,20.37
2018-04-12T17:59:17.892Z,22.00
2018-04-12T18:01:46.195Z,20.67
2018-04-12T18:04:14.302Z,21.93
2018-04-12T18:06:42.425Z,19.70
2018-04-12T18:09:10.526Z,20.90
2018-04-12T18:11:38.672Z,21.37
2018-04-12T18:14:06.816Z,23.07
2018-04-12T18:16:34.955Z,18.60
2018-04-12T18:19:03.079Z,20.30
2018-04-12T18:21:31.601Z,21.47
2018-04-12T18:23:59.773Z,18.57
2018-04-12T18:26:28.019Z,20.97
2018-04-12T18:28:56.283Z,17.20
2018-04-12T18:31:25.449Z,17.80
2018-04-12T18:33:53.878Z,22.27
2018-04-12T18:36:22.252Z,17.37
2018-04-12T18:38:50.685Z,18.07
2018-04-12T18:41:19.032Z,20.60
2018-04-12T18:43:47.448Z,24.40
2018-04-12T18:46:15.727Z,20.33
2018-04-12T18:48:44.204Z,24.80
2018-04-12T18:51:12.468Z,17.30
2018-04-12T18:53:40.604Z,19.73
2018-04-12T18:56:08.711Z,25.17
2018-04-12T18:58:36.840Z,17.77
2018-04-12T19:01:04.985Z,21.97
2018-04-12T19:03:33.097Z,22.37
2018-04-12T19:06:01.384Z,17.77
2018-04-12T19:08:29.609Z,17.00
2018-04-12T19:10:57.720Z,18.97
2018-04-12T19:13:26.459Z,22.83
2018-04-12T19:15:54.540Z,25.87
2018-04-12T19:18:22.669Z,23.87
2018-04-12T19:20:50.849Z,22.47
2018-04-12T19:23:18.971Z,20.20
2018-04-12T19:25:47.688Z,20.27
2018-04-12T19:28:15.849Z,19.10
2018-04-12T19:30:44.167Z,19.17
2018-04-12T19:33:12.234Z,23.93
2018-04-12T19:35:40.348Z,18.97
2018-04-12T19:38:08.534Z,23.40
2018-04-12T19:40:36.738Z,22.73
2018-04-12T19:43:05.938Z,25.20
2018-04-12T19:45:34.085Z,27.70
2018-04-12T19:48:02.252Z,26.30
2018-04-12T19:50:30.340Z,20.40
2018-04-12T19:52:58.534Z,20.93
2018-04-12T19:55:26.651Z,25.17
2018-04-12T19:57:54.761Z,26.13
2018-04-12T20:00:22.936Z,20.80
2018-04-12T20:02:51.084Z,24.33
2018-04-12T20:05:19.211Z,29.60
2018-04-12T20:07:47.386Z,26.87
2018-04-12T20:10:15.479Z,26.83
2018-04-12T20:12:43.611Z,26.17
2018-04-12T20:15:11.739Z,28.97
2018-04-12T20:17:39.902Z,25.57
2018-04-12T20:20:08.782Z,27.27
2018-04-12T20:22:36.951Z,28.33
2018-04-12T20:25:05.027Z,26.37
2018-04-12T20:27:33.160Z,27.70
2018-04-12T20:30:01.305Z,25.33
2018-04-12T20:32:30.310Z,27.83
2018-04-12T20:34:58.401Z,28.90
2018-04-12T20:37:26.516Z,24.33
2018-04-12T20:39:54.706Z,26.10
2018-04-12T20:42:23.583Z,25.73
2018-04-12T20:44:51.687Z,26.43
2018-04-12T20:47:19.815Z,22.10
2018-04-12T20:49:47.988Z,27.43
2018-04-12T20:52:16.164Z,29.07
2018-04-12T20:54:44.319Z,25.70
2018-04-12T20:57:12.426Z,27.67
2018-04-12T20:59:40.536Z,24.47
2018-04-12T21:02:08.651Z,20.30
2018-04-12T21:04:37.535Z,26.30
2018-04-12T21:07:05.731Z,25.60
2018-04-12T21:09:34.712Z,27.80
2018-04-12T21:12:03.022Z,27.97
2018-04-12T21:14:31.281Z,27.60
2018-04-12T21:17:00.265Z,26.87
2018-04-12T21:19:29.233Z,25.53
2018-04-12T21:21:57.393Z,27.20
2018-04-12T21:24:25.569Z,26.70
2018-04-12T21:26:53.670Z,27.00
2018-04-12T21:29:21.788Z,23.40
2018-04-12T21:31:50.672Z,26.20
2018-04-12T21:34:19.552Z,27.80
2018-04-12T21:36:47.751Z,29.60
2018-04-12T21:39:16.635Z,29.20
2018-04-12T21:41:45.523Z,26.23
2018-04-12T21:44:13.624Z,26.03
2018-04-12T21:46:41.963Z,30.57
2018-04-12T21:49:10.095Z,28.40
2018-04-12T21:51:38.269Z,26.47
2018-04-12T21:54:06.355Z,27.90
2018-04-12T21:56:34.479Z,23.60
2018-04-12T21:59:03.377Z,28.53
2018-04-12T22:01:31.483Z,26.57
2018-04-12T22:04:00.359Z,24.47
2018-04-12T22:06:28.459Z,29.37
2018-04-12T22:08:56.560Z,28.53
2018-04-12T22:11:24.668Z,28.87
2018-04-12T22:13:52.777Z,26.23
2018-04-12T22:16:21.707Z,30.53
2018-04-12T22:18:49.799Z,27.00
2018-04-12T22:21:18.034Z,24.87
2018-04-12T22:23:46.940Z,22.27
2018-04-12T22:26:15.109Z,26.30
2018-04-12T22:28:43.255Z,28.20
2018-04-12T22:31:11.364Z,29.80
2018-04-12T22:33:39.491Z,24.40
2018-04-12T22:36:07.591Z,29.33
2018-04-12T22:38:35.708Z,27.30
2018-04-12T22:41:03.864Z,27.07
2018-04-12T22:43:32.741Z,27.33
2018-04-12T22:46:00.849Z,26.03
2018-04-12T22:48:28.964Z,27.43
2018-04-12T22:50:57.103Z,27.67
2018-04-12T22:53:25.979Z,25.40
2018-04-12T22:55:54.085Z,26.73
2018-04-12T22:58:22.192Z,27.07
2018-04-12T23:00:50.350Z,29.40
2018-04-12T23:03:18.462Z,27.10
2018-04-12T23:05:46.588Z,28.57
2018-04-12T23:08:14.693Z,28.83
2018-04-12T23:10:42.839Z,28.03
2018-04-12T23:13:10.955Z,27.53
2018-04-12T23:15:39.071Z,28.33
2018-04-12T23:18:07.951Z,28.73
2018-04-12T23:20:36.135Z,27.80
2018-04-12T23:23:04.236Z,28.83
2018-04-12T23:25:32.336Z,26.37
2018-04-12T23:28:00.577Z,28.37
2018-04-12T23:30:29.488Z,27.80
2018-04-12T23:32:57.621Z,25.30
2018-04-12T23:35:25.720Z,26.00
2018-04-12T23:37:53.840Z,28.67
2018-04-12T23:40:21.989Z,28.13
2018-04-12T23:42:50.863Z,26.97
2018-04-12T23:45:18.966Z,28.53
2018-04-12T23:47:47.082Z,26.30
2018-04-12T23:50:15.196Z,24.77
2018-04-12T23:52:43.309Z,20.80
2018-04-12T23:55:11.409Z,24.57
2018-04-12T23:57:39.536Z,23.37
